sensor_id;sensor_type;location;lat;lon;timestamp;temperature;humidity
45549;DHT22;31270;48.328;10.096;2023-08-20T00:01:14;22.10;99.90
45549;DHT22;31270;48.328;10.096;2023-08-20T00:03:41;22.10;99.90
45549;DHT22;31270;48.328;10.096;2023-08-20T00:06:07;22.00;99.90
45549;DHT22;31270;48.328;10.096;2023-08-20T00:08:33;22.00;99.90
45549;DHT22;31270;48.328;10.096;2023-08-20T00:10:59;22.00;99.90
45549;DHT22;31270;48.328;10.096;2023-08-20T00:13:24;21.90;99.90
45549;DHT22;31270;48.328;10.096;2023-08-20T00:15:50;21.90;99.90
45549;DHT22;31270;48.328;10.096;2023-08-20T00:18:16;21.90;99.90
45549;DHT22;31270;48.328;10.096;2023-08-20T00:20:42;21.90;99.90
45549;DHT22;31270;48.328;10.096;2023-08-20T00:23:08;21.80;99.90
45549;DHT22;31270;48.328;10.096;2023-08-20T00:25:34;21.80;99.90
45549;DHT22;31270;48.328;10.096;2023-08-20T00:27:59;21.70;99.90
45549;DHT22;31270;48.328;10.096;2023-08-20T00:30:25;21.70;99.90
45549;DHT22;31270;48.328;10.096;2023-08-20T00:32:51;21.60;99.90
45549;DHT22;31270;48.328;10.096;2023-08-20T00:35:16;21.60;99.90
45549;DHT22;31270;48.328;10.096;2023-08-20T00:37:42;21.50;99.90
45549;DHT22;31270;48.328;10.096;2023-08-20T00:40:10;21.50;99.90
45549;DHT22;31270;48.328;10.096;2023-08-20T00:42:36;21.50;99.90
45549;DHT22;31270;48.328;10.096;2023-08-20T00:45:02;21.40;99.90
45549;DHT22;31270;48.328;10.096;2023-08-20T00:47:29;21.40;99.90
45549;DHT22;31270;48.328;10.096;2023-08-20T00:49:55;21.30;99.90
45549;DHT22;31270;48.328;10.096;2023-08-20T00:52:21;21.30;99.90
45549;DHT22;31270;48.328;10.096;2023-08-20T00:54:48;21.20;99.90
45549;DHT22;31270;48.328;10.096;2023-08-20T00:57:14;21.30;99.90
45549;DHT22;31270;48.328;10.096;2023-08-20T00:59:43;21.10;99.90
45549;DHT22;31270;48.328;10.096;2023-08-20T01:02:09;21.10;99.90
45549;DHT22;31270;48.328;10.096;2023-08-20T01:04:36;21.10;99.90
45549;DHT22;31270;48.328;10.096;2023-08-20T01:12:34;21.10;99.90
45549;DHT22;31270;48.328;10.096;2023-08-20T01:15:00;21.00;99.90
45549;DHT22;31270;48.328;10.096;2023-08-20T01:17:25;21.00;99.90
45549;DHT22;31270;48.328;10.096;2023-08-20T01:19:51;20.90;99.90
45549;DHT22;31270;48.328;10.096;2023-08-20T01:22:40;20.90;99.90
45549;DHT22;31270;48.328;10.096;2023-08-20T01:25:11;20.90;99.90
45549;DHT22;31270;48.328;10.096;2023-08-20T01:30:26;20.90;99.90
45549;DHT22;31270;48.328;10.096;2023-08-20T01:32:53;20.90;99.90
45549;DHT22;31270;48.328;10.096;2023-08-20T01:35:19;20.80;99.90
45549;DHT22;31270;48.328;10.096;2023-08-20T01:37:45;20.90;99.90
45549;DHT22;31270;48.328;10.096;2023-08-20T01:40:11;20.80;99.90
45549;DHT22;31270;48.328;10.096;2023-08-20T01:42:40;20.80;99.90
45549;DHT22;31270;48.328;10.096;2023-08-20T01:45:06;20.80;99.90
45549;DHT22;31270;48.328;10.096;2023-08-20T01:47:35;20.80;99.90
45549;DHT22;31270;48.328;10.096;2023-08-20T01:50:01;20.80;99.90
45549;DHT22;31270;48.328;10.096;2023-08-20T01:52:28;20.70;99.90
45549;DHT22;31270;48.328;10.096;2023-08-20T01:54:54;20.80;99.90
45549;DHT22;31270;48.328;10.096;2023-08-20T01:57:20;20.70;99.90
45549;DHT22;31270;48.328;10.096;2023-08-20T01:59:47;20.70;99.90
45549;DHT22;31270;48.328;10.096;2023-08-20T02:02:13;20.60;99.90
45549;DHT22;31270;48.328;10.096;2023-08-20T02:04:39;20.60;99.90
45549;DHT22;31270;48.328;10.096;2023-08-20T02:07:05;20.60;99.90
45549;DHT22;31270;48.328;10.096;2023-08-20T02:09:31;20.60;99.90
45549;DHT22;31270;48.328;10.096;2023-08-20T02:11:57;20.50;99.90
45549;DHT22;31270;48.328;10.096;2023-08-20T02:14:22;20.50;99.90
45549;DHT22;31270;48.328;10.096;2023-08-20T02:16:48;20.60;99.90
45549;DHT22;31270;48.328;10.096;2023-08-20T02:19:21;20.50;99.90
45549;DHT22;31270;48.328;10.096;2023-08-20T02:21:46;20.50;99.90
45549;DHT22;31270;48.328;10.096;2023-08-20T02:24:13;20.50;99.90
45549;DHT22;31270;48.328;10.096;2023-08-20T02:26:38;20.50;99.90
45549;DHT22;31270;48.328;10.096;2023-08-20T02:29:04;20.40;99.90
45549;DHT22;31270;48.328;10.096;2023-08-20T02:31:30;20.40;99.90
45549;DHT22;31270;48.328;10.096;2023-08-20T02:33:56;20.40;99.90
45549;DHT22;31270;48.328;10.096;2023-08-20T02:36:22;20.40;99.90
45549;DHT22;31270;48.328;10.096;2023-08-20T02:38:47;20.40;99.90
45549;DHT22;31270;48.328;10.096;2023-08-20T02:41:13;20.40;99.90
45549;DHT22;31270;48.328;10.096;2023-08-20T02:43:38;20.30;99.90
45549;DHT22;31270;48.328;10.096;2023-08-20T02:46:04;20.30;99.90
45549;DHT22;31270;48.328;10.096;2023-08-20T02:48:30;20.30;99.90
45549;DHT22;31270;48.328;10.096;2023-08-20T02:50:56;20.30;99.90
45549;DHT22;31270;48.328;10.096;2023-08-20T02:53:22;20.30;99.90
45549;DHT22;31270;48.328;10.096;2023-08-20T02:55:48;20.30;99.90
45549;DHT22;31270;48.328;10.096;2023-08-20T02:58:14;20.20;99.90
45549;DHT22;31270;48.328;10.096;2023-08-20T03:00:40;20.20;99.90
45549;DHT22;31270;48.328;10.096;2023-08-20T03:03:06;20.20;99.90
45549;DHT22;31270;48.328;10.096;2023-08-20T03:05:34;20.20;99.90
45549;DHT22;31270;48.328;10.096;2023-08-20T03:08:00;20.10;99.90
45549;DHT22;31270;48.328;10.096;2023-08-20T03:10:27;20.10;99.90
45549;DHT22;31270;48.328;10.096;2023-08-20T03:12:52;20.10;99.90
45549;DHT22;31270;48.328;10.096;2023-08-20T03:15:18;20.10;99.90
45549;DHT22;31270;48.328;10.096;2023-08-20T03:17:44;20.10;99.90
45549;DHT22;31270;48.328;10.096;2023-08-20T03:20:10;20.00;99.90
45549;DHT22;31270;48.328;10.096;2023-08-20T03:22:37;20.00;99.90
45549;DHT22;31270;48.328;10.096;2023-08-20T03:25:03;20.00;99.90
45549;DHT22;31270;48.328;10.096;2023-08-20T03:27:29;20.00;99.90
45549;DHT22;31270;48.328;10.096;2023-08-20T03:29:55;20.00;99.90
45549;DHT22;31270;48.328;10.096;2023-08-20T03:32:20;20.00;99.90
45549;DHT22;31270;48.328;10.096;2023-08-20T03:34:46;20.00;99.90
45549;DHT22;31270;48.328;10.096;2023-08-20T03:37:12;19.90;99.90
45549;DHT22;31270;48.328;10.096;2023-08-20T03:39:37;19.90;99.90
45549;DHT22;31270;48.328;10.096;2023-08-20T03:42:03;19.90;99.90
45549;DHT22;31270;48.328;10.096;2023-08-20T03:44:29;19.90;99.90
45549;DHT22;31270;48.328;10.096;2023-08-20T03:46:55;19.80;99.90
45549;DHT22;31270;48.328;10.096;2023-08-20T03:49:21;19.90;99.90
45549;DHT22;31270;48.328;10.096;2023-08-20T03:51:47;19.80;99.90
45549;DHT22;31270;48.328;10.096;2023-08-20T03:54:13;19.80;99.90
45549;DHT22;31270;48.328;10.096;2023-08-20T03:56:39;19.80;99.90
45549;DHT22;31270;48.328;10.096;2023-08-20T03:59:04;19.90;99.90
45549;DHT22;31270;48.328;10.096;2023-08-20T04:01:30;19.80;99.90
45549;DHT22;31270;48.328;10.096;2023-08-20T04:03:56;19.80;99.90
45549;DHT22;31270;48.328;10.096;2023-08-20T04:06:21;19.80;99.90
45549;DHT22;31270;48.328;10.096;2023-08-20T04:08:47;19.80;99.90
45549;DHT22;31270;48.328;10.096;2023-08-20T04:11:13;19.80;99.90
45549;DHT22;31270;48.328;10.096;2023-08-20T04:13:38;19.70;99.90
45549;DHT22;31270;48.328;10.096;2023-08-20T04:16:05;19.70;99.90
45549;DHT22;31270;48.328;10.096;2023-08-20T04:18:30;19.70;99.90
45549;DHT22;31270;48.328;10.096;2023-08-20T04:20:56;19.80;99.90
45549;DHT22;31270;48.328;10.096;2023-08-20T04:23:23;19.70;99.90
45549;DHT22;31270;48.328;10.096;2023-08-20T04:25:48;19.70;99.90
45549;DHT22;31270;48.328;10.096;2023-08-20T04:28:14;19.60;99.90
45549;DHT22;31270;48.328;10.096;2023-08-20T04:30:39;19.70;99.90
45549;DHT22;31270;48.328;10.096;2023-08-20T04:33:05;19.60;99.90
45549;DHT22;31270;48.328;10.096;2023-08-20T04:35:31;19.70;99.90
45549;DHT22;31270;48.328;10.096;2023-08-20T04:37:57;19.60;99.90
45549;DHT22;31270;48.328;10.096;2023-08-20T04:40:22;19.60;99.90
45549;DHT22;31270;48.328;10.096;2023-08-20T04:42:49;19.70;99.90
45549;DHT22;31270;48.328;10.096;2023-08-20T04:45:14;19.70;99.90
45549;DHT22;31270;48.328;10.096;2023-08-20T04:47:43;19.70;99.90
45549;DHT22;31270;48.328;10.096;2023-08-20T04:50:09;19.60;99.90
45549;DHT22;31270;48.328;10.096;2023-08-20T04:52:34;19.60;99.90
45549;DHT22;31270;48.328;10.096;2023-08-20T04:55:03;19.70;99.90
45549;DHT22;31270;48.328;10.096;2023-08-20T04:57:29;19.70;99.90
45549;DHT22;31270;48.328;10.096;2023-08-20T04:59:55;19.70;99.90
45549;DHT22;31270;48.328;10.096;2023-08-20T05:02:20;19.80;99.90
45549;DHT22;31270;48.328;10.096;2023-08-20T05:04:46;19.90;99.90
45549;DHT22;31270;48.328;10.096;2023-08-20T05:07:11;19.90;99.90
45549;DHT22;31270;48.328;10.096;2023-08-20T05:09:37;19.90;99.90
45549;DHT22;31270;48.328;10.096;2023-08-20T05:12:03;19.90;99.90
45549;DHT22;31270;48.328;10.096;2023-08-20T05:14:29;20.00;99.90
45549;DHT22;31270;48.328;10.096;2023-08-20T05:16:56;20.10;99.90
45549;DHT22;31270;48.328;10.096;2023-08-20T05:19:22;20.10;99.90
45549;DHT22;31270;48.328;10.096;2023-08-20T05:21:47;20.30;99.90
45549;DHT22;31270;48.328;10.096;2023-08-20T05:24:13;20.40;99.90
45549;DHT22;31270;48.328;10.096;2023-08-20T05:26:38;20.50;99.90
45549;DHT22;31270;48.328;10.096;2023-08-20T05:29:04;20.60;99.90
45549;DHT22;31270;48.328;10.096;2023-08-20T05:31:30;20.80;99.90
45549;DHT22;31270;48.328;10.096;2023-08-20T05:33:55;20.80;99.90
45549;DHT22;31270;48.328;10.096;2023-08-20T05:36:23;20.90;99.90
45549;DHT22;31270;48.328;10.096;2023-08-20T05:38:48;21.00;99.90
45549;DHT22;31270;48.328;10.096;2023-08-20T05:41:14;21.10;99.90
45549;DHT22;31270;48.328;10.096;2023-08-20T05:43:40;21.30;99.90
45549;DHT22;31270;48.328;10.096;2023-08-20T05:46:05;21.30;99.90
45549;DHT22;31270;48.328;10.096;2023-08-20T05:48:31;21.50;99.90
45549;DHT22;31270;48.328;10.096;2023-08-20T05:50:56;21.60;99.90
45549;DHT22;31270;48.328;10.096;2023-08-20T05:53:22;21.70;99.90
45549;DHT22;31270;48.328;10.096;2023-08-20T05:55:48;21.80;99.90
45549;DHT22;31270;48.328;10.096;2023-08-20T05:58:14;22.00;99.90
45549;DHT22;31270;48.328;10.096;2023-08-20T06:00:39;22.20;99.90
45549;DHT22;31270;48.328;10.096;2023-08-20T06:03:05;22.30;99.90
45549;DHT22;31270;48.328;10.096;2023-08-20T06:05:36;22.40;99.90
45549;DHT22;31270;48.328;10.096;2023-08-20T06:08:02;22.60;99.90
45549;DHT22;31270;48.328;10.096;2023-08-20T06:10:27;22.70;99.90
45549;DHT22;31270;48.328;10.096;2023-08-20T06:12:53;22.70;99.90
45549;DHT22;31270;48.328;10.096;2023-08-20T06:15:19;22.80;99.90
45549;DHT22;31270;48.328;10.096;2023-08-20T06:17:45;23.00;99.90
45549;DHT22;31270;48.328;10.096;2023-08-20T06:20:11;23.00;99.90
45549;DHT22;31270;48.328;10.096;2023-08-20T06:22:40;23.10;99.90
45549;DHT22;31270;48.328;10.096;2023-08-20T06:25:05;23.30;99.90
45549;DHT22;31270;48.328;10.096;2023-08-20T06:27:31;23.40;99.90
45549;DHT22;31270;48.328;10.096;2023-08-20T06:29:57;23.60;99.90
45549;DHT22;31270;48.328;10.096;2023-08-20T06:32:25;23.80;99.90
45549;DHT22;31270;48.328;10.096;2023-08-20T06:34:51;24.00;99.90
45549;DHT22;31270;48.328;10.096;2023-08-20T06:37:17;24.30;99.90
45549;DHT22;31270;48.328;10.096;2023-08-20T06:39:42;24.40;99.90
45549;DHT22;31270;48.328;10.096;2023-08-20T06:42:08;24.50;99.90
45549;DHT22;31270;48.328;10.096;2023-08-20T06:44:33;24.50;99.90
45549;DHT22;31270;48.328;10.096;2023-08-20T06:47:00;24.60;99.90
45549;DHT22;31270;48.328;10.096;2023-08-20T06:49:26;24.70;99.90
45549;DHT22;31270;48.328;10.096;2023-08-20T06:51:51;24.70;99.90
45549;DHT22;31270;48.328;10.096;2023-08-20T06:54:17;24.80;99.90
45549;DHT22;31270;48.328;10.096;2023-08-20T06:56:43;24.90;99.90
45549;DHT22;31270;48.328;10.096;2023-08-20T06:59:08;25.10;99.90
45549;DHT22;31270;48.328;10.096;2023-08-20T07:01:36;25.20;99.90
45549;DHT22;31270;48.328;10.096;2023-08-20T07:04:02;25.30;99.90
45549;DHT22;31270;48.328;10.096;2023-08-20T07:06:28;25.50;99.90
45549;DHT22;31270;48.328;10.096;2023-08-20T07:08:53;25.80;99.90
45549;DHT22;31270;48.328;10.096;2023-08-20T07:11:19;26.10;99.90
45549;DHT22;31270;48.328;10.096;2023-08-20T07:13:45;26.30;99.90
45549;DHT22;31270;48.328;10.096;2023-08-20T07:16:11;26.40;99.90
45549;DHT22;31270;48.328;10.096;2023-08-20T07:18:37;26.50;99.90
45549;DHT22;31270;48.328;10.096;2023-08-20T07:21:02;26.70;99.90
45549;DHT22;31270;48.328;10.096;2023-08-20T07:23:28;26.90;99.90
45549;DHT22;31270;48.328;10.096;2023-08-20T07:26:05;26.80;99.90
45549;DHT22;31270;48.328;10.096;2023-08-20T07:28:31;26.80;99.90
45549;DHT22;31270;48.328;10.096;2023-08-20T07:31:15;26.90;99.90
45549;DHT22;31270;48.328;10.096;2023-08-20T07:33:41;27.00;99.90
45549;DHT22;31270;48.328;10.096;2023-08-20T07:36:06;27.20;99.90
45549;DHT22;31270;48.328;10.096;2023-08-20T07:38:32;27.50;99.90
45549;DHT22;31270;48.328;10.096;2023-08-20T07:40:57;27.70;99.90
45549;DHT22;31270;48.328;10.096;2023-08-20T07:43:24;28.00;99.90
45549;DHT22;31270;48.328;10.096;2023-08-20T07:45:50;27.90;99.90
45549;DHT22;31270;48.328;10.096;2023-08-20T07:48:15;28.30;99.90
45549;DHT22;31270;48.328;10.096;2023-08-20T07:50:41;28.50;99.90
45549;DHT22;31270;48.328;10.096;2023-08-20T07:53:06;28.40;99.90
45549;DHT22;31270;48.328;10.096;2023-08-20T07:55:32;28.70;99.90
45549;DHT22;31270;48.328;10.096;2023-08-20T07:57:58;29.00;99.90
45549;DHT22;31270;48.328;10.096;2023-08-20T08:00:23;29.10;99.90
45549;DHT22;31270;48.328;10.096;2023-08-20T08:02:49;28.90;99.90
45549;DHT22;31270;48.328;10.096;2023-08-20T08:05:14;29.10;99.90
45549;DHT22;31270;48.328;10.096;2023-08-20T08:07:40;29.40;99.90
45549;DHT22;31270;48.328;10.096;2023-08-20T08:10:06;29.30;99.90
45549;DHT22;31270;48.328;10.096;2023-08-20T08:12:32;29.30;99.90
45549;DHT22;31270;48.328;10.096;2023-08-20T08:14:57;29.40;99.90
45549;DHT22;31270;48.328;10.096;2023-08-20T08:17:23;29.70;99.90
45549;DHT22;31270;48.328;10.096;2023-08-20T08:19:49;29.90;99.90
45549;DHT22;31270;48.328;10.096;2023-08-20T08:22:14;30.20;99.90
45549;DHT22;31270;48.328;10.096;2023-08-20T08:24:40;30.30;99.90
45549;DHT22;31270;48.328;10.096;2023-08-20T08:27:07;30.30;99.90
45549;DHT22;31270;48.328;10.096;2023-08-20T08:29:33;30.50;99.90
45549;DHT22;31270;48.328;10.096;2023-08-20T08:31:58;30.50;99.90
45549;DHT22;31270;48.328;10.096;2023-08-20T08:34:24;30.70;99.90
45549;DHT22;31270;48.328;10.096;2023-08-20T08:36:50;30.60;99.90
45549;DHT22;31270;48.328;10.096;2023-08-20T08:39:15;30.80;99.90
45549;DHT22;31270;48.328;10.096;2023-08-20T08:41:41;31.00;99.90
45549;DHT22;31270;48.328;10.096;2023-08-20T08:44:13;31.20;99.90
45549;DHT22;31270;48.328;10.096;2023-08-20T08:46:39;31.70;99.90
45549;DHT22;31270;48.328;10.096;2023-08-20T08:49:05;32.00;99.90
45549;DHT22;31270;48.328;10.096;2023-08-20T08:51:31;32.20;99.90
45549;DHT22;31270;48.328;10.096;2023-08-20T08:53:57;32.00;99.90
45549;DHT22;31270;48.328;10.096;2023-08-20T08:56:24;32.10;99.90
45549;DHT22;31270;48.328;10.096;2023-08-20T08:58:49;32.10;99.90
45549;DHT22;31270;48.328;10.096;2023-08-20T09:01:15;32.20;99.90
45549;DHT22;31270;48.328;10.096;2023-08-20T09:03:40;32.10;99.90
45549;DHT22;31270;48.328;10.096;2023-08-20T09:06:09;32.20;99.90
45549;DHT22;31270;48.328;10.096;2023-08-20T09:08:35;32.50;99.90
45549;DHT22;31270;48.328;10.096;2023-08-20T09:11:01;32.80;99.90
45549;DHT22;31270;48.328;10.096;2023-08-20T09:13:42;33.00;99.90
45549;DHT22;31270;48.328;10.096;2023-08-20T09:16:10;33.00;99.90
45549;DHT22;31270;48.328;10.096;2023-08-20T09:18:44;33.10;99.90
45549;DHT22;31270;48.328;10.096;2023-08-20T09:21:12;33.20;99.90
45549;DHT22;31270;48.328;10.096;2023-08-20T09:23:38;33.20;99.90
45549;DHT22;31270;48.328;10.096;2023-08-20T09:26:06;33.10;99.90
45549;DHT22;31270;48.328;10.096;2023-08-20T09:28:43;33.30;99.90
45549;DHT22;31270;48.328;10.096;2023-08-20T09:31:09;33.30;99.90
45549;DHT22;31270;48.328;10.096;2023-08-20T09:33:35;33.30;99.90
45549;DHT22;31270;48.328;10.096;2023-08-20T09:36:03;33.50;99.90
45549;DHT22;31270;48.328;10.096;2023-08-20T09:38:29;33.70;99.90
45549;DHT22;31270;48.328;10.096;2023-08-20T09:40:55;33.80;99.90
45549;DHT22;31270;48.328;10.096;2023-08-20T09:43:24;33.70;99.90
45549;DHT22;31270;48.328;10.096;2023-08-20T09:45:55;33.90;99.90
45549;DHT22;31270;48.328;10.096;2023-08-20T09:48:22;34.10;99.90
45549;DHT22;31270;48.328;10.096;2023-08-20T09:50:51;34.40;99.90
45549;DHT22;31270;48.328;10.096;2023-08-20T09:53:31;34.50;99.90
45549;DHT22;31270;48.328;10.096;2023-08-20T09:56:08;34.30;99.90
45549;DHT22;31270;48.328;10.096;2023-08-20T09:58:37;34.50;99.90
45549;DHT22;31270;48.328;10.096;2023-08-20T10:01:03;34.30;99.90
45549;DHT22;31270;48.328;10.096;2023-08-20T10:03:29;34.30;99.90
45549;DHT22;31270;48.328;10.096;2023-08-20T10:05:56;34.30;99.90
45549;DHT22;31270;48.328;10.096;2023-08-20T10:08:23;34.40;99.90
45549;DHT22;31270;48.328;10.096;2023-08-20T10:10:49;34.70;99.90
45549;DHT22;31270;48.328;10.096;2023-08-20T10:13:16;34.90;99.90
45549;DHT22;31270;48.328;10.096;2023-08-20T10:15:42;35.10;99.90
45549;DHT22;31270;48.328;10.096;2023-08-20T10:18:08;35.10;99.90
45549;DHT22;31270;48.328;10.096;2023-08-20T10:20:34;35.10;99.90
45549;DHT22;31270;48.328;10.096;2023-08-20T10:23:03;35.00;99.90
45549;DHT22;31270;48.328;10.096;2023-08-20T10:25:44;35.10;99.90
45549;DHT22;31270;48.328;10.096;2023-08-20T10:30:38;35.50;99.90
45549;DHT22;31270;48.328;10.096;2023-08-20T10:33:26;35.40;99.90
45549;DHT22;31270;48.328;10.096;2023-08-20T10:35:53;35.50;99.90
45549;DHT22;31270;48.328;10.096;2023-08-20T10:38:18;35.70;99.90
45549;DHT22;31270;48.328;10.096;2023-08-20T10:40:57;35.70;99.90
45549;DHT22;31270;48.328;10.096;2023-08-20T10:43:30;35.80;99.90
45549;DHT22;31270;48.328;10.096;2023-08-20T10:46:04;35.60;99.90
45549;DHT22;31270;48.328;10.096;2023-08-20T10:48:33;35.20;99.90
45549;DHT22;31270;48.328;10.096;2023-08-20T10:51:08;35.20;99.90
45549;DHT22;31270;48.328;10.096;2023-08-20T10:53:34;35.20;99.90
45549;DHT22;31270;48.328;10.096;2023-08-20T10:56:16;35.00;99.90
45549;DHT22;31270;48.328;10.096;2023-08-20T10:58:46;35.30;99.90
45549;DHT22;31270;48.328;10.096;2023-08-20T11:01:19;35.50;99.90
45549;DHT22;31270;48.328;10.096;2023-08-20T11:03:47;35.90;99.90
45549;DHT22;31270;48.328;10.096;2023-08-20T11:06:14;36.10;99.90
45549;DHT22;31270;48.328;10.096;2023-08-20T11:08:41;36.10;99.90
45549;DHT22;31270;48.328;10.096;2023-08-20T11:11:07;36.40;99.90
45549;DHT22;31270;48.328;10.096;2023-08-20T11:13:34;36.40;99.50
45549;DHT22;31270;48.328;10.096;2023-08-20T11:16:03;36.60;99.90
45549;DHT22;31270;48.328;10.096;2023-08-20T11:18:31;36.90;99.90
45549;DHT22;31270;48.328;10.096;2023-08-20T11:20:57;37.10;99.90
45549;DHT22;31270;48.328;10.096;2023-08-20T11:23:23;37.20;99.30
45549;DHT22;31270;48.328;10.096;2023-08-20T11:25:50;37.30;99.90
45549;DHT22;31270;48.328;10.096;2023-08-20T11:28:16;37.20;99.40
45549;DHT22;31270;48.328;10.096;2023-08-20T11:30:42;37.20;98.80
45549;DHT22;31270;48.328;10.096;2023-08-20T11:33:07;36.90;99.90
45549;DHT22;31270;48.328;10.096;2023-08-20T11:35:35;36.90;99.00
45549;DHT22;31270;48.328;10.096;2023-08-20T11:38:00;36.80;98.30
45549;DHT22;31270;48.328;10.096;2023-08-20T11:40:28;36.80;97.90
45549;DHT22;31270;48.328;10.096;2023-08-20T11:42:54;36.60;97.10
45549;DHT22;31270;48.328;10.096;2023-08-20T11:45:19;36.30;98.10
45549;DHT22;31270;48.328;10.096;2023-08-20T11:47:45;36.40;99.60
45549;DHT22;31270;48.328;10.096;2023-08-20T11:50:10;36.50;99.90
45549;DHT22;31270;48.328;10.096;2023-08-20T11:52:37;36.60;98.60
45549;DHT22;31270;48.328;10.096;2023-08-20T11:55:05;36.80;99.90
45549;DHT22;31270;48.328;10.096;2023-08-20T11:57:31;37.00;99.90
45549;DHT22;31270;48.328;10.096;2023-08-20T12:00:05;37.10;99.00
45549;DHT22;31270;48.328;10.096;2023-08-20T12:02:35;37.40;99.90
45549;DHT22;31270;48.328;10.096;2023-08-20T12:05:01;37.60;99.60
45549;DHT22;31270;48.328;10.096;2023-08-20T12:07:29;37.90;99.00
45549;DHT22;31270;48.328;10.096;2023-08-20T12:09:55;37.70;98.40
45549;DHT22;31270;48.328;10.096;2023-08-20T12:12:21;37.90;99.60
45549;DHT22;31270;48.328;10.096;2023-08-20T12:14:47;37.80;95.20
45549;DHT22;31270;48.328;10.096;2023-08-20T12:17:20;37.70;95.70
45549;DHT22;31270;48.328;10.096;2023-08-20T12:19:46;37.80;98.30
45549;DHT22;31270;48.328;10.096;2023-08-20T12:22:12;38.10;98.90
45549;DHT22;31270;48.328;10.096;2023-08-20T12:24:38;38.30;96.70
45549;DHT22;31270;48.328;10.096;2023-08-20T12:27:04;38.50;96.90
45549;DHT22;31270;48.328;10.096;2023-08-20T12:29:29;38.70;96.90
45549;DHT22;31270;48.328;10.096;2023-08-20T12:31:55;38.70;94.80
45549;DHT22;31270;48.328;10.096;2023-08-20T12:34:21;38.90;96.70
45549;DHT22;31270;48.328;10.096;2023-08-20T12:36:51;38.80;94.60
45549;DHT22;31270;48.328;10.096;2023-08-20T12:39:17;38.90;97.90
45549;DHT22;31270;48.328;10.096;2023-08-20T12:41:42;38.90;97.10
45549;DHT22;31270;48.328;10.096;2023-08-20T12:44:08;39.00;96.10
45549;DHT22;31270;48.328;10.096;2023-08-20T12:46:34;38.90;94.80
45549;DHT22;31270;48.328;10.096;2023-08-20T12:48:59;38.80;93.70
45549;DHT22;31270;48.328;10.096;2023-08-20T12:51:26;38.80;91.70
45549;DHT22;31270;48.328;10.096;2023-08-20T12:53:51;38.80;93.80
45549;DHT22;31270;48.328;10.096;2023-08-20T12:56:17;39.10;91.90
45549;DHT22;31270;48.328;10.096;2023-08-20T12:58:44;39.10;89.80
45549;DHT22;31270;48.328;10.096;2023-08-20T13:01:09;38.90;90.00
45549;DHT22;31270;48.328;10.096;2023-08-20T13:03:35;38.80;90.60
45549;DHT22;31270;48.328;10.096;2023-08-20T13:06:01;38.60;90.70
45549;DHT22;31270;48.328;10.096;2023-08-20T13:08:27;38.50;92.20
45549;DHT22;31270;48.328;10.096;2023-08-20T13:10:54;38.40;90.40
45549;DHT22;31270;48.328;10.096;2023-08-20T13:13:22;38.40;93.30
45549;DHT22;31270;48.328;10.096;2023-08-20T13:15:49;38.40;93.00
45549;DHT22;31270;48.328;10.096;2023-08-20T13:18:14;38.60;91.70
45549;DHT22;31270;48.328;10.096;2023-08-20T13:20:41;38.50;93.20
45549;DHT22;31270;48.328;10.096;2023-08-20T13:23:07;38.40;92.50
45549;DHT22;31270;48.328;10.096;2023-08-20T13:25:33;38.20;91.10
45549;DHT22;31270;48.328;10.096;2023-08-20T13:27:59;38.20;92.20
45549;DHT22;31270;48.328;10.096;2023-08-20T13:30:24;38.10;90.60
45549;DHT22;31270;48.328;10.096;2023-08-20T13:32:50;38.10;91.90
45549;DHT22;31270;48.328;10.096;2023-08-20T13:35:16;38.40;95.10
45549;DHT22;31270;48.328;10.096;2023-08-20T13:37:42;38.50;92.30
45549;DHT22;31270;48.328;10.096;2023-08-20T13:40:08;38.60;92.80
45549;DHT22;31270;48.328;10.096;2023-08-20T13:42:35;38.60;92.20
45549;DHT22;31270;48.328;10.096;2023-08-20T13:45:01;38.60;91.50
45549;DHT22;31270;48.328;10.096;2023-08-20T13:47:27;38.30;90.90
45549;DHT22;31270;48.328;10.096;2023-08-20T13:49:53;38.10;88.90
45549;DHT22;31270;48.328;10.096;2023-08-20T13:52:19;38.00;91.40
45549;DHT22;31270;48.328;10.096;2023-08-20T13:54:45;38.00;92.20
45549;DHT22;31270;48.328;10.096;2023-08-20T13:57:11;38.40;94.90
45549;DHT22;31270;48.328;10.096;2023-08-20T13:59:37;38.60;90.70
45549;DHT22;31270;48.328;10.096;2023-08-20T14:02:04;38.70;92.10
45549;DHT22;31270;48.328;10.096;2023-08-20T14:04:30;38.80;92.20
45549;DHT22;31270;48.328;10.096;2023-08-20T14:06:55;38.80;88.90
45549;DHT22;31270;48.328;10.096;2023-08-20T14:09:21;38.80;90.00
45549;DHT22;31270;48.328;10.096;2023-08-20T14:11:47;38.50;89.20
45549;DHT22;31270;48.328;10.096;2023-08-20T14:14:13;38.40;85.90
45549;DHT22;31270;48.328;10.096;2023-08-20T14:16:39;38.40;91.50
45549;DHT22;31270;48.328;10.096;2023-08-20T14:19:05;38.50;92.30
45549;DHT22;31270;48.328;10.096;2023-08-20T14:21:31;38.70;90.80
45549;DHT22;31270;48.328;10.096;2023-08-20T14:23:57;38.40;89.00
45549;DHT22;31270;48.328;10.096;2023-08-20T14:26:23;38.20;89.60
45549;DHT22;31270;48.328;10.096;2023-08-20T14:28:49;38.20;91.40
45549;DHT22;31270;48.328;10.096;2023-08-20T14:31:15;38.40;92.40
45549;DHT22;31270;48.328;10.096;2023-08-20T14:33:41;38.70;93.10
45549;DHT22;31270;48.328;10.096;2023-08-20T14:36:07;38.60;89.30
45549;DHT22;31270;48.328;10.096;2023-08-20T14:38:33;38.40;89.00
45549;DHT22;31270;48.328;10.096;2023-08-20T14:41:00;38.20;87.00
45549;DHT22;31270;48.328;10.096;2023-08-20T14:43:26;37.80;88.10
45549;DHT22;31270;48.328;10.096;2023-08-20T14:45:51;37.60;86.20
45549;DHT22;31270;48.328;10.096;2023-08-20T14:48:17;37.40;87.10
45549;DHT22;31270;48.328;10.096;2023-08-20T14:50:42;37.60;90.30
45549;DHT22;31270;48.328;10.096;2023-08-20T14:53:09;37.70;91.60
45549;DHT22;31270;48.328;10.096;2023-08-20T14:55:34;37.90;89.10
45549;DHT22;31270;48.328;10.096;2023-08-20T14:58:00;37.60;88.60
45549;DHT22;31270;48.328;10.096;2023-08-20T15:00:26;37.30;90.30
45549;DHT22;31270;48.328;10.096;2023-08-20T15:02:55;37.10;90.10
45549;DHT22;31270;48.328;10.096;2023-08-20T15:05:20;37.10;87.90
45549;DHT22;31270;48.328;10.096;2023-08-20T15:07:47;37.10;88.80
45549;DHT22;31270;48.328;10.096;2023-08-20T15:10:13;37.10;86.90
45549;DHT22;31270;48.328;10.096;2023-08-20T15:12:40;37.00;85.30
45549;DHT22;31270;48.328;10.096;2023-08-20T15:15:06;36.60;87.40
45549;DHT22;31270;48.328;10.096;2023-08-20T15:17:34;36.40;89.20
45549;DHT22;31270;48.328;10.096;2023-08-20T15:20:00;36.10;89.30
45549;DHT22;31270;48.328;10.096;2023-08-20T15:22:26;36.10;89.40